Terminal Aerodrome Forecast
Issued by NWS Missoula, MT

Home | Current Version | Previous Version | Text Only | Print | Product List | Glossary On
Versions: 1 2 3 4 5 6 7 8 9 10 11 12 13 14 15 16 17 18 19 20 21 22
000
FTUS45 KMSO 291122
TAFMSO
TAF
KMSO 291122Z 2912/3012 VRB04KT P6SM SKC
     FM291600 30006KT P6SM BKN120
     FM292100 27012G19KT P6SM -SHRA BKN080
     FM300000 31010G30KT P6SM -SHRA VCTS BKN060CB BKN080
     FM300200 29008KT P6SM VCSH BKN080=

USA.gov is the U.S. government's official web portal to all federal, state and local government web resources and services.